createdAt,value
2016-09-04T00:00:15.369Z,99.99
2016-09-04T00:01:15.379Z,99.99
2016-09-04T00:02:15.404Z,99.99
2016-09-04T00:03:15.379Z,99.99
2016-09-04T00:04:15.386Z,99.99
2016-09-04T00:05:15.355Z,99.99
2016-09-04T00:06:15.372Z,99.99
2016-09-04T00:07:15.380Z,99.99
2016-09-04T00:08:15.367Z,99.99
2016-09-04T00:09:15.394Z,99.99
2016-09-04T00:10:15.380Z,99.99
2016-09-04T00:11:15.367Z,99.99
2016-09-04T00:12:15.366Z,99.99
2016-09-04T00:13:15.380Z,99.99
2016-09-04T00:14:15.384Z,99.99
2016-09-04T00:15:15.366Z,99.99
2016-09-04T00:16:15.399Z,99.99
2016-09-04T00:17:15.371Z,99.99
2016-09-04T00:18:15.363Z,99.99
2016-09-04T00:19:15.374Z,99.99
2016-09-04T00:20:15.379Z,99.99
2016-09-04T00:21:15.409Z,99.99
2016-09-04T00:22:15.388Z,99.99
2016-09-04T00:23:15.383Z,99.99
2016-09-04T00:24:15.385Z,99.99
2016-09-04T00:25:15.397Z,99.99
2016-09-04T00:26:15.399Z,99.99
2016-09-04T00:27:15.434Z,99.99
2016-09-04T00:28:15.387Z,99.99
2016-09-04T00:29:15.403Z,99.99
2016-09-04T00:30:15.382Z,99.99
2016-09-04T00:31:15.405Z,99.99
2016-09-04T00:32:15.381Z,99.99
2016-09-04T00:33:15.419Z,99.99
2016-09-04T00:34:15.411Z,99.99
2016-09-04T00:35:15.395Z,99.99
2016-09-04T00:36:15.428Z,99.99
2016-09-04T00:37:15.402Z,99.99
2016-09-04T00:38:15.396Z,99.99
2016-09-04T00:39:15.397Z,99.99
2016-09-04T00:40:15.398Z,99.99
2016-09-04T00:41:15.400Z,99.99
2016-09-04T00:42:15.418Z,99.99
2016-09-04T00:43:15.411Z,99.99
2016-09-04T00:44:15.401Z,99.99
2016-09-04T00:45:15.398Z,99.99
2016-09-04T00:46:15.404Z,99.99
2016-09-04T00:47:15.398Z,99.99
2016-09-04T00:48:15.412Z,99.99
2016-09-04T00:49:15.397Z,99.99
2016-09-04T00:50:15.398Z,99.99
2016-09-04T00:51:15.398Z,99.99
2016-09-04T00:52:15.415Z,99.99
2016-09-04T00:53:15.414Z,99.99
2016-09-04T00:54:15.397Z,99.99
2016-09-04T00:55:15.412Z,99.99
2016-09-04T00:56:15.413Z,99.99
2016-09-04T00:57:15.415Z,99.99
2016-09-04T00:58:15.418Z,99.99
2016-09-04T00:59:15.415Z,99.99
2016-09-04T01:00:15.423Z,99.99
2016-09-04T01:01:15.412Z,99.99
2016-09-04T01:02:15.429Z,99.99
2016-09-04T01:03:15.415Z,99.99
2016-09-04T01:04:15.423Z,99.99
2016-09-04T01:05:15.413Z,99.99
2016-09-04T01:06:15.423Z,99.99
2016-09-04T01:07:16.053Z,99.99
2016-09-04T01:08:15.438Z,99.99
2016-09-04T01:09:15.430Z,99.99
2016-09-04T01:10:15.447Z,99.99
2016-09-04T01:11:15.586Z,99.99
2016-09-04T01:12:15.418Z,99.99
2016-09-04T01:13:15.429Z,99.99
2016-09-04T01:14:15.414Z,99.99
2016-09-04T01:15:15.435Z,99.99
2016-09-04T01:16:15.418Z,99.99
2016-09-04T01:17:15.435Z,99.99
2016-09-04T01:18:15.423Z,99.99
2016-09-04T01:19:15.435Z,99.99
2016-09-04T01:20:15.482Z,99.99
2016-09-04T01:21:15.435Z,99.99
2016-09-04T01:22:15.474Z,99.99
2016-09-04T01:23:15.463Z,99.99
2016-09-04T01:24:15.536Z,99.99
2016-09-04T01:25:15.449Z,99.99
2016-09-04T01:26:15.428Z,99.99
2016-09-04T01:27:15.473Z,99.99
2016-09-04T01:28:15.443Z,99.99
2016-09-04T01:29:15.496Z,99.99
2016-09-04T01:30:15.434Z,99.99
2016-09-04T01:31:15.446Z,99.99
2016-09-04T01:32:15.446Z,99.99
2016-09-04T01:33:15.460Z,99.99
2016-09-04T01:34:15.460Z,99.99
2016-09-04T01:35:15.444Z,99.99
2016-09-04T01:36:15.460Z,99.99
2016-09-04T01:37:15.432Z,99.99
2016-09-04T01:38:15.461Z,99.99
2016-09-04T01:39:15.597Z,99.99
2016-09-04T01:40:15.635Z,99.99
2016-09-04T01:41:15.472Z,99.99
2016-09-04T01:42:15.496Z,99.99
2016-09-04T01:43:15.486Z,99.99
2016-09-04T01:44:15.467Z,99.99
2016-09-04T01:45:15.475Z,99.99
2016-09-04T01:46:15.480Z,99.99
2016-09-04T01:47:15.453Z,99.99
2016-09-04T01:48:15.539Z,99.99
2016-09-04T01:49:15.459Z,99.99
2016-09-04T01:50:15.467Z,99.99
2016-09-04T01:51:15.552Z,99.99
2016-09-04T01:52:15.481Z,99.99
2016-09-04T01:53:15.586Z,99.99
2016-09-04T01:54:15.478Z,99.99
2016-09-04T01:55:15.463Z,99.99
2016-09-04T01:56:15.470Z,99.99
2016-09-04T01:57:15.563Z,99.99
2016-09-04T01:58:15.482Z,99.99
2016-09-04T01:59:15.462Z,99.99
2016-09-04T02:00:15.498Z,99.99
2016-09-04T02:01:15.475Z,99.99
2016-09-04T02:02:15.475Z,99.99
2016-09-04T02:03:15.471Z,99.99
2016-09-04T02:04:15.492Z,99.99
2016-09-04T02:05:15.478Z,99.99
2016-09-04T02:06:15.492Z,99.99
2016-09-04T02:07:15.570Z,99.99
2016-09-04T02:08:15.470Z,99.99
2016-09-04T02:09:15.494Z,99.99
2016-09-04T02:10:15.481Z,99.99
2016-09-04T02:11:15.498Z,99.99
2016-09-04T02:12:15.479Z,99.99
2016-09-04T02:13:15.499Z,99.99
2016-09-04T02:14:15.493Z,99.99
2016-09-04T02:15:15.513Z,99.99
2016-09-04T02:16:15.475Z,99.99
2016-09-04T02:17:15.490Z,99.99
2016-09-04T02:18:15.477Z,99.99
2016-09-04T02:19:15.497Z,99.99
2016-09-04T02:20:15.490Z,99.99
2016-09-04T02:21:15.479Z,99.99
2016-09-04T02:22:15.492Z,99.99
2016-09-04T02:23:15.493Z,99.99
2016-09-04T02:24:15.492Z,99.99
2016-09-04T02:25:15.504Z,99.99
2016-09-04T02:26:15.532Z,99.99
2016-09-04T02:27:15.495Z,99.99
2016-09-04T02:28:15.499Z,99.99
2016-09-04T02:29:15.509Z,99.99
2016-09-04T02:30:15.502Z,99.99
2016-09-04T02:31:15.499Z,99.99
2016-09-04T02:32:15.495Z,99.99
2016-09-04T02:33:15.508Z,99.99
2016-09-04T02:34:15.514Z,99.99
2016-09-04T02:35:15.492Z,99.99
2016-09-04T02:36:15.509Z,99.99
2016-09-04T02:37:15.507Z,99.99
2016-09-04T02:38:15.496Z,99.99
2016-09-04T02:39:15.497Z,99.99
2016-09-04T02:40:15.507Z,99.99
2016-09-04T02:41:15.510Z,99.99
2016-09-04T02:42:15.510Z,99.99
2016-09-04T02:43:15.512Z,99.99
2016-09-04T02:44:15.509Z,99.99
2016-09-04T02:45:15.510Z,99.99
2016-09-04T02:46:15.509Z,99.99
2016-09-04T02:47:15.514Z,99.99
2016-09-04T02:48:15.521Z,99.99
2016-09-04T02:49:15.511Z,99.99
2016-09-04T02:50:15.534Z,99.99
2016-09-04T02:51:15.510Z,99.99
2016-09-04T02:52:15.525Z,99.99
2016-09-04T02:53:15.526Z,99.99
2016-09-04T02:54:15.518Z,99.99
2016-09-04T02:55:15.518Z,99.99
2016-09-04T02:56:15.527Z,99.99
2016-09-04T02:57:15.527Z,99.99
2016-09-04T02:58:15.556Z,99.99
2016-09-04T02:59:15.555Z,99.99
2016-09-04T03:00:15.523Z,99.99
2016-09-04T03:01:15.515Z,99.99
2016-09-04T03:02:15.526Z,99.99
2016-09-04T03:03:15.526Z,99.99
2016-09-04T03:04:15.543Z,99.99
2016-09-04T03:05:15.526Z,99.99
2016-09-04T03:06:15.526Z,99.99
2016-09-04T03:07:15.546Z,99.99
2016-09-04T03:08:15.526Z,99.99
2016-09-04T03:09:15.539Z,99.99
2016-09-04T03:10:15.569Z,99.99
2016-09-04T03:11:15.538Z,99.99
2016-09-04T03:12:15.545Z,99.99
2016-09-04T03:13:15.557Z,99.99
2016-09-04T03:14:15.543Z,99.99
2016-09-04T03:15:15.537Z,99.99
2016-09-04T03:16:15.556Z,99.99
2016-09-04T03:17:15.555Z,99.99
2016-09-04T03:18:15.556Z,99.99
2016-09-04T03:19:15.601Z,99.99
2016-09-04T03:20:15.574Z,99.99
2016-09-04T03:21:15.567Z,99.99
2016-09-04T03:22:15.545Z,99.99
2016-09-04T03:23:15.558Z,99.99
2016-09-04T03:24:15.538Z,99.99
2016-09-04T03:25:15.558Z,99.99
2016-09-04T03:26:15.557Z,99.99
2016-09-04T03:27:15.561Z,99.99
2016-09-04T03:28:15.550Z,99.99
2016-09-04T03:29:15.539Z,99.99
2016-09-04T03:30:15.543Z,99.99
2016-09-04T03:31:15.556Z,99.99
2016-09-04T03:32:15.545Z,99.99
2016-09-04T03:33:15.555Z,99.99
2016-09-04T03:34:15.560Z,99.99
2016-09-04T03:35:15.563Z,99.99
2016-09-04T03:36:15.571Z,99.99
2016-09-04T03:37:15.563Z,99.99
2016-09-04T03:38:15.555Z,99.99
2016-09-04T03:39:15.619Z,99.99
2016-09-04T03:40:15.574Z,99.99
2016-09-04T03:41:15.577Z,99.99
2016-09-04T03:42:15.563Z,99.99
2016-09-04T03:43:15.558Z,99.99
2016-09-04T03:44:15.573Z,99.99
2016-09-04T03:45:15.559Z,99.99
2016-09-04T03:46:15.574Z,99.99
2016-09-04T03:47:15.573Z,99.99
2016-09-04T03:48:15.565Z,99.99
2016-09-04T03:49:15.571Z,99.99
2016-09-04T03:50:15.574Z,99.99
2016-09-04T03:51:15.586Z,99.99
2016-09-04T03:52:15.574Z,99.99
2016-09-04T03:53:15.576Z,99.99
2016-09-04T03:54:15.568Z,99.99
2016-09-04T03:55:15.578Z,99.99
2016-09-04T03:56:15.588Z,99.99
2016-09-04T03:57:15.584Z,99.99
2016-09-04T03:58:15.608Z,99.99
2016-09-04T03:59:15.597Z,99.99
2016-09-04T04:00:15.598Z,99.99
2016-09-04T04:01:15.589Z,99.99
2016-09-04T04:02:15.572Z,99.99
2016-09-04T04:03:15.590Z,99.99
2016-09-04T04:04:15.590Z,99.99
2016-09-04T04:05:15.582Z,99.99
2016-09-04T04:06:15.614Z,99.99
2016-09-04T04:07:15.625Z,99.99
2016-09-04T04:08:15.616Z,99.99
2016-09-04T04:09:15.607Z,99.99
2016-09-04T04:10:15.591Z,99.99
2016-09-04T04:11:15.592Z,99.99
2016-09-04T04:12:15.611Z,99.99
2016-09-04T04:13:15.590Z,99.99
2016-09-04T04:14:16.579Z,99.99
2016-09-04T04:15:15.590Z,99.99
2016-09-04T04:16:15.597Z,99.99
2016-09-04T04:17:15.611Z,99.99
2016-09-04T04:18:15.604Z,99.99
2016-09-04T04:19:15.592Z,99.99
2016-09-04T04:20:15.604Z,99.99
2016-09-04T04:21:15.621Z,99.99
2016-09-04T04:22:15.602Z,99.99
2016-09-04T04:23:15.607Z,99.99
2016-09-04T04:24:15.623Z,99.99
2016-09-04T04:25:15.613Z,99.99
2016-09-04T04:26:15.606Z,99.99
2016-09-04T04:27:15.602Z,99.99
2016-09-04T04:28:15.606Z,99.99
2016-09-04T04:29:15.626Z,99.99
2016-09-04T04:30:15.613Z,99.99
2016-09-04T04:31:15.612Z,99.99
2016-09-04T04:32:15.608Z,99.99
2016-09-04T04:33:15.622Z,99.99
2016-09-04T04:34:15.626Z,99.99
2016-09-04T04:35:15.616Z,99.99
2016-09-04T04:36:15.624Z,99.99
2016-09-04T04:37:15.630Z,99.99
2016-09-04T04:38:15.631Z,99.99
2016-09-04T04:39:15.622Z,99.99
2016-09-04T04:40:15.611Z,99.99
2016-09-04T04:41:15.620Z,99.99
2016-09-04T04:42:15.623Z,99.99
2016-09-04T04:43:15.629Z,99.99
2016-09-04T04:44:15.621Z,99.99
2016-09-04T04:45:15.625Z,99.99
2016-09-04T04:46:15.631Z,99.99
2016-09-04T04:47:15.638Z,99.99
2016-09-04T04:48:15.643Z,99.99
2016-09-04T04:49:15.622Z,99.99
2016-09-04T04:50:15.627Z,99.99
2016-09-04T04:51:16.657Z,99.99
2016-09-04T04:52:15.627Z,99.99
2016-09-04T04:53:15.637Z,99.99
2016-09-04T04:54:15.624Z,99.99
2016-09-04T04:55:15.629Z,99.99
2016-09-04T04:56:15.649Z,99.99
2016-09-04T04:57:15.633Z,99.99
2016-09-04T04:58:15.636Z,99.99
2016-09-04T04:59:15.639Z,99.99
2016-09-04T05:00:15.653Z,99.99
2016-09-04T05:01:15.640Z,99.99
2016-09-04T05:02:15.639Z,99.99
2016-09-04T05:03:15.637Z,99.99
2016-09-04T05:04:15.652Z,99.99
2016-09-04T05:05:15.643Z,99.99
2016-09-04T05:06:15.645Z,99.99
2016-09-04T05:07:15.650Z,99.99
2016-09-04T05:08:15.652Z,99.99
2016-09-04T05:09:15.672Z,99.99
2016-09-04T05:10:15.636Z,99.99
2016-09-04T05:11:15.647Z,99.99
2016-09-04T05:12:15.675Z,99.99
2016-09-04T05:13:15.715Z,99.99
2016-09-04T05:14:15.668Z,99.99
2016-09-04T05:15:15.653Z,99.99
2016-09-04T05:16:15.657Z,99.99
2016-09-04T05:17:15.646Z,99.99
2016-09-04T05:18:15.659Z,99.99
2016-09-04T05:19:15.652Z,99.99
2016-09-04T05:20:15.669Z,99.99
2016-09-04T05:21:15.653Z,99.99
2016-09-04T05:22:15.655Z,99.99
2016-09-04T05:23:15.679Z,99.99
2016-09-04T05:24:15.655Z,99.99
2016-09-04T05:25:15.714Z,99.99
2016-09-04T05:26:15.655Z,99.99
2016-09-04T05:27:15.691Z,99.99
2016-09-04T05:28:15.659Z,99.99
2016-09-04T05:29:15.674Z,99.99
2016-09-04T05:30:15.651Z,99.99
2016-09-04T05:31:15.656Z,99.99
2016-09-04T05:32:15.655Z,99.99
2016-09-04T05:33:15.676Z,99.99
2016-09-04T05:34:15.691Z,99.99
2016-09-04T05:35:15.658Z,99.99
2016-09-04T05:36:15.673Z,99.99
2016-09-04T05:37:15.685Z,99.99
2016-09-04T05:38:15.670Z,99.99
2016-09-04T05:39:15.673Z,99.99
2016-09-04T05:40:15.674Z,99.99
2016-09-04T05:41:15.668Z,99.99
2016-09-04T05:42:15.685Z,99.99
2016-09-04T05:43:15.664Z,99.99
2016-09-04T05:44:15.686Z,99.99
2016-09-04T05:45:15.685Z,99.99
2016-09-04T05:46:15.685Z,99.99
2016-09-04T05:47:15.681Z,99.99
2016-09-04T05:48:15.685Z,99.99
2016-09-04T05:49:15.674Z,99.99
2016-09-04T05:50:15.716Z,99.99
2016-09-04T05:51:15.686Z,99.99
2016-09-04T05:52:15.681Z,99.99
2016-09-04T05:53:15.703Z,99.99
2016-09-04T05:54:15.696Z,99.99
2016-09-04T05:55:15.688Z,99.99
2016-09-04T05:56:15.706Z,99.99
2016-09-04T05:57:15.704Z,99.99
2016-09-04T05:58:15.706Z,99.99
2016-09-04T05:59:15.686Z,99.99
2016-09-04T06:00:15.699Z,99.99
2016-09-04T06:01:15.706Z,99.99
2016-09-04T06:02:15.687Z,99.99
2016-09-04T06:03:15.692Z,99.99
2016-09-04T06:04:15.685Z,99.99
2016-09-04T06:05:15.704Z,99.99
2016-09-04T06:06:15.684Z,99.99
2016-09-04T06:07:15.705Z,99.99
2016-09-04T06:08:15.715Z,99.99
2016-09-04T06:09:15.705Z,99.99
2016-09-04T06:10:15.696Z,99.99
2016-09-04T06:11:15.713Z,99.99
2016-09-04T06:12:15.701Z,99.99
2016-09-04T06:13:15.709Z,99.99
2016-09-04T06:14:15.720Z,99.99
2016-09-04T06:15:15.706Z,99.99
2016-09-04T06:16:15.720Z,99.99
2016-09-04T06:17:15.733Z,99.99
2016-09-04T06:18:15.721Z,99.99
2016-09-04T06:19:15.698Z,99.99
2016-09-04T06:20:15.717Z,99.99
2016-09-04T06:21:15.717Z,99.99
2016-09-04T06:22:15.704Z,99.99
2016-09-04T06:23:15.717Z,99.99
2016-09-04T06:24:15.723Z,99.99
2016-09-04T06:25:15.732Z,99.99
2016-09-04T06:26:15.793Z,99.99
2016-09-04T06:27:15.717Z,99.99
2016-09-04T06:28:15.748Z,99.99
2016-09-04T06:29:15.731Z,99.99
2016-09-04T06:30:15.717Z,99.99
2016-09-04T06:31:15.736Z,99.99
2016-09-04T06:32:15.730Z,99.99
2016-09-04T06:33:15.733Z,99.99
2016-09-04T06:34:15.726Z,99.99
2016-09-04T06:35:15.730Z,99.99
2016-09-04T06:36:15.736Z,99.99
2016-09-04T06:37:15.744Z,99.99
2016-09-04T06:38:15.733Z,99.99
2016-09-04T06:39:15.724Z,99.99
2016-09-04T06:40:15.737Z,99.99
2016-09-04T06:41:15.752Z,99.99
2016-09-04T06:42:15.734Z,99.99
2016-09-04T06:43:15.731Z,99.99
2016-09-04T06:44:15.732Z,99.99
2016-09-04T06:45:15.722Z,99.99
2016-09-04T06:46:15.739Z,99.99
2016-09-04T06:47:15.737Z,99.99
2016-09-04T06:48:15.734Z,99.99
2016-09-04T06:49:15.748Z,99.99
2016-09-04T06:50:15.750Z,99.99
2016-09-04T06:51:15.758Z,99.99
2016-09-04T06:52:15.751Z,99.99
2016-09-04T06:53:15.734Z,99.99
2016-09-04T06:54:15.754Z,99.99
2016-09-04T06:55:15.749Z,99.99
2016-09-04T06:56:15.755Z,99.99
2016-09-04T06:57:15.747Z,99.99
2016-09-04T06:58:15.756Z,99.99
2016-09-04T06:59:15.743Z,99.99
2016-09-04T07:00:15.756Z,99.99
2016-09-04T07:01:15.752Z,99.99
2016-09-04T07:02:15.749Z,99.99
2016-09-04T07:03:15.748Z,99.99
2016-09-04T07:04:15.762Z,99.99
2016-09-04T07:05:15.780Z,99.99
2016-09-04T07:06:15.781Z,99.99
2016-09-04T07:07:15.765Z,99.99
2016-09-04T07:08:15.752Z,99.99
2016-09-04T07:09:15.771Z,99.99
2016-09-04T07:10:15.765Z,99.99
2016-09-04T07:11:15.757Z,99.99
2016-09-04T07:12:15.767Z,99.99
2016-09-04T07:13:15.765Z,99.99
2016-09-04T07:14:15.818Z,99.99
2016-09-04T07:15:15.768Z,99.99
2016-09-04T07:16:15.784Z,99.99
2016-09-04T07:17:15.772Z,99.99
2016-09-04T07:18:15.766Z,99.99
2016-09-04T07:19:15.764Z,99.99
2016-09-04T07:20:15.778Z,99.99
2016-09-04T07:21:15.782Z,99.99
2016-09-04T07:22:15.778Z,99.99
2016-09-04T07:23:15.784Z,99.99
2016-09-04T07:24:15.780Z,99.99
2016-09-04T07:25:15.781Z,99.99
2016-09-04T07:26:15.788Z,99.99
2016-09-04T07:27:15.774Z,99.99
2016-09-04T07:28:15.786Z,99.99
2016-09-04T07:29:15.765Z,99.99
2016-09-04T07:30:15.787Z,99.99
2016-09-04T07:31:15.796Z,99.99
2016-09-04T07:32:15.787Z,99.99
2016-09-04T07:33:15.790Z,99.99
2016-09-04T07:34:15.784Z,99.99
2016-09-04T07:35:15.793Z,99.99
2016-09-04T07:36:15.813Z,99.99
2016-09-04T07:37:15.812Z,99.99
2016-09-04T07:38:15.799Z,99.99
2016-09-04T07:39:15.794Z,99.99
2016-09-04T07:40:15.801Z,99.99
2016-09-04T07:41:15.804Z,99.99
2016-09-04T07:42:15.797Z,99.99
2016-09-04T07:43:15.797Z,99.99
2016-09-04T07:44:15.854Z,99.99
2016-09-04T07:45:15.823Z,99.99
2016-09-04T07:46:15.811Z,99.99
2016-09-04T07:47:15.802Z,99.99
2016-09-04T07:48:15.813Z,99.99
2016-09-04T07:49:15.864Z,99.99
2016-09-04T07:50:15.813Z,99.99
2016-09-04T07:51:15.815Z,99.99
2016-09-04T07:52:15.814Z,99.99
2016-09-04T07:53:15.812Z,99.99
2016-09-04T07:54:15.812Z,99.99
2016-09-04T07:55:15.815Z,99.99
2016-09-04T07:56:15.815Z,99.99
2016-09-04T07:57:15.798Z,99.99
2016-09-04T07:58:15.857Z,99.99
2016-09-04T07:59:15.842Z,99.99
2016-09-04T08:00:15.844Z,99.99
2016-09-04T08:01:15.813Z,99.99
2016-09-04T08:02:15.831Z,99.99
2016-09-04T08:03:15.831Z,99.99
2016-09-04T08:04:15.801Z,99.99
2016-09-04T08:05:15.845Z,99.99
2016-09-04T08:06:15.849Z,99.99
2016-09-04T08:07:15.830Z,99.99
2016-09-04T08:08:15.848Z,99.99
2016-09-04T08:09:15.888Z,99.99
2016-09-04T08:10:15.831Z,99.99
2016-09-04T08:11:15.809Z,99.99
2016-09-04T08:12:15.820Z,99.99
2016-09-04T08:13:15.812Z,99.99
2016-09-04T08:14:15.814Z,99.99
2016-09-04T08:15:15.835Z,99.99
2016-09-04T08:16:15.828Z,99.99
2016-09-04T08:17:15.814Z,99.99
2016-09-04T08:18:15.829Z,99.99
2016-09-04T08:19:15.836Z,99.99
2016-09-04T08:20:15.843Z,99.99
2016-09-04T08:21:15.825Z,99.99
2016-09-04T08:22:15.827Z,99.99
2016-09-04T08:23:15.827Z,99.99
2016-09-04T08:24:15.845Z,99.99
2016-09-04T08:25:15.850Z,99.99
2016-09-04T08:26:15.830Z,99.99
2016-09-04T08:27:15.822Z,99.99
2016-09-04T08:28:15.877Z,99.99
2016-09-04T08:29:15.849Z,99.99
2016-09-04T08:30:15.830Z,99.99
2016-09-04T08:31:15.832Z,99.99
2016-09-04T08:32:15.846Z,99.99
2016-09-04T08:33:15.844Z,99.99
2016-09-04T08:34:15.841Z,99.99
2016-09-04T08:35:15.844Z,99.99
2016-09-04T08:36:15.836Z,99.99
2016-09-04T08:37:15.846Z,99.99
2016-09-04T08:38:15.847Z,99.99
2016-09-04T08:39:15.861Z,99.99
2016-09-04T08:40:15.854Z,99.99
2016-09-04T08:41:15.842Z,99.99
2016-09-04T08:42:15.883Z,99.99
2016-09-04T08:43:15.860Z,99.99
2016-09-04T08:44:15.890Z,99.99
2016-09-04T08:45:15.897Z,99.99
2016-09-04T08:46:15.894Z,99.99
2016-09-04T08:47:15.853Z,99.99
2016-09-04T08:48:15.880Z,99.99
2016-09-04T08:49:15.908Z,99.99
2016-09-04T08:50:15.848Z,99.99
2016-09-04T08:51:15.850Z,99.99
2016-09-04T08:52:15.868Z,99.99
2016-09-04T08:53:15.872Z,99.99
2016-09-04T08:54:15.882Z,99.99
2016-09-04T08:55:15.873Z,99.99
2016-09-04T08:56:15.888Z,99.99
2016-09-04T08:57:15.869Z,99.99
2016-09-04T08:58:15.890Z,99.99
2016-09-04T08:59:15.877Z,97.52
2016-09-04T09:00:15.887Z,96.17
2016-09-04T09:01:15.871Z,95.1
2016-09-04T09:02:15.894Z,95.01
2016-09-04T09:03:15.890Z,95.3
2016-09-04T09:04:15.897Z,95.78
2016-09-04T09:05:15.881Z,96.07
2016-09-04T09:06:15.892Z,96.17
2016-09-04T09:07:15.874Z,94.82
2016-09-04T09:08:15.913Z,95.98
2016-09-04T09:09:15.882Z,94.67
2016-09-04T09:10:15.889Z,94.62
2016-09-04T09:11:15.883Z,93.9
2016-09-04T09:12:15.878Z,93.61
2016-09-04T09:13:15.887Z,94.67
2016-09-04T09:14:15.916Z,95.64
2016-09-04T09:15:15.897Z,94.38
2016-09-04T09:16:15.882Z,94.14
2016-09-04T09:17:15.876Z,92.49
2016-09-04T09:18:16.016Z,92.01
2016-09-04T09:19:16.147Z,91.72
2016-09-04T09:20:15.908Z,91.38
2016-09-04T09:21:15.911Z,91.28
2016-09-04T09:22:15.896Z,92.01
2016-09-04T09:23:15.884Z,92.65
2016-09-04T09:24:15.901Z,92.93
2016-09-04T09:25:15.906Z,93.71
2016-09-04T09:26:15.894Z,95.73
2016-09-04T09:27:15.900Z,96.89
2016-09-04T09:28:15.902Z,97.77
2016-09-04T09:29:15.906Z,97.77
2016-09-04T09:30:15.892Z,98.93
2016-09-04T09:31:15.905Z,99.45
2016-09-04T09:32:15.986Z,99.99
2016-09-04T09:33:15.894Z,99.99
2016-09-04T09:34:15.921Z,99.99
2016-09-04T09:35:15.923Z,99.99
2016-09-04T09:36:15.921Z,99.99
2016-09-04T09:37:15.936Z,99.99
2016-09-04T09:38:15.943Z,99.99
2016-09-04T09:39:15.943Z,99.99
2016-09-04T09:40:15.939Z,99.99
2016-09-04T09:41:15.935Z,99.99
2016-09-04T09:42:15.928Z,99.99
2016-09-04T09:43:15.919Z,99.99
2016-09-04T09:44:15.969Z,99.99
2016-09-04T09:45:15.919Z,99.99
2016-09-04T09:46:15.924Z,99.99
2016-09-04T09:47:15.912Z,99.99
2016-09-04T09:48:16.028Z,99.99
2016-09-04T09:49:15.958Z,99.99
2016-09-04T09:50:15.922Z,99.99
2016-09-04T09:51:16.163Z,99.99
2016-09-04T09:52:15.922Z,99.99
2016-09-04T09:53:15.940Z,99.99
2016-09-04T09:54:15.924Z,99.99
2016-09-04T09:55:15.969Z,99.99
2016-09-04T09:56:15.925Z,99.99
2016-09-04T09:57:15.936Z,99.99
2016-09-04T09:58:15.926Z,99.99
2016-09-04T09:59:16.402Z,99.99
2016-09-04T10:00:15.942Z,99.99
2016-09-04T10:01:15.969Z,99.99
2016-09-04T10:02:15.963Z,99.99
2016-09-04T10:03:15.956Z,99.99
2016-09-04T10:04:15.931Z,99.99
2016-09-04T10:05:16.019Z,99.99
2016-09-04T10:06:15.937Z,99.99
2016-09-04T10:07:15.945Z,99.99
2016-09-04T10:08:15.940Z,99.99
2016-09-04T10:09:16.184Z,99.99
2016-09-04T10:10:15.995Z,99.99
2016-09-04T10:11:16.212Z,99.99
2016-09-04T10:12:15.954Z,99.99
2016-09-04T10:13:15.951Z,99.99
2016-09-04T10:14:15.952Z,99.99
2016-09-04T10:15:15.970Z,99.99
2016-09-04T10:16:15.962Z,99.99
2016-09-04T10:17:15.957Z,99.99
2016-09-04T10:18:15.934Z,99.99
2016-09-04T10:19:15.968Z,99.99
2016-09-04T10:20:33.125Z,99.99
2016-09-04T10:21:36.229Z,99.99
2016-09-04T10:22:40.396Z,99.99
2016-09-04T10:23:41.475Z,99.99
2016-09-04T10:24:37.000Z,99.99
2016-09-04T10:25:54.200Z,99.99
2016-09-04T10:27:39.565Z,99.99
2016-09-04T10:29:23.952Z,99.99
2016-09-04T10:31:24.561Z,99.99
2016-09-04T10:33:04.825Z,99.99
2016-09-04T10:34:39.375Z,99.99
2016-09-04T10:36:12.967Z,99.99
2016-09-04T10:37:28.517Z,99.99
2016-09-04T10:38:28.268Z,99.99
2016-09-04T10:39:36.399Z,99.99
2016-09-04T10:40:17.123Z,99.99
2016-09-04T10:41:36.963Z,99.99
2016-09-04T10:42:40.790Z,99.99
2016-09-04T10:43:49.277Z,99.99
2016-09-04T10:44:58.292Z,99.99
2016-09-04T10:45:38.322Z,99.99
2016-09-04T10:46:38.081Z,99.99
2016-09-04T10:47:38.103Z,99.99
2016-09-04T10:48:38.100Z,99.99
2016-09-04T10:49:38.119Z,99.99
2016-09-04T10:50:38.119Z,99.99
2016-09-04T10:51:38.147Z,99.99
2016-09-04T10:52:38.116Z,99.99
2016-09-04T10:53:38.099Z,99.99
2016-09-04T10:54:38.208Z,99.99
2016-09-04T10:55:38.113Z,99.99
2016-09-04T10:56:38.111Z,99.99
2016-09-04T10:57:38.125Z,99.99
2016-09-04T10:58:38.102Z,99.99
2016-09-04T10:59:38.147Z,99.99
2016-09-04T11:00:38.132Z,99.99
2016-09-04T11:01:38.190Z,99.99
2016-09-04T11:02:38.169Z,99.99
2016-09-04T11:03:38.716Z,99.99
2016-09-04T11:04:43.365Z,99.99
2016-09-04T11:05:46.233Z,99.99
2016-09-04T11:06:54.590Z,99.99
2016-09-04T11:08:25.461Z,99.99
2016-09-04T11:09:22.324Z,99.99
2016-09-04T11:11:00.621Z,99.99
2016-09-04T11:11:22.040Z,99.99
2016-09-04T11:12:22.104Z,99.99
2016-09-04T11:13:21.972Z,99.99
2016-09-04T11:14:21.999Z,99.99
2016-09-04T11:15:21.991Z,99.99
2016-09-04T11:16:21.983Z,99.99
2016-09-04T11:17:21.975Z,99.99
2016-09-04T11:18:25.384Z,99.99
2016-09-04T11:19:37.955Z,99.99
2016-09-04T11:20:22.188Z,99.99
2016-09-04T11:21:22.302Z,99.99
2016-09-04T11:22:21.995Z,99.99
2016-09-04T11:23:22.070Z,99.99
2016-09-04T11:24:22.352Z,99.99
2016-09-04T11:25:21.984Z,99.99
2016-09-04T11:26:22.049Z,99.99
2016-09-04T11:27:21.997Z,99.99
2016-09-04T11:28:21.976Z,99.99
2016-09-04T11:29:22.030Z,99.99
2016-09-04T11:30:22.040Z,99.99
2016-09-04T11:31:22.040Z,99.99
2016-09-04T11:32:22.006Z,99.99
2016-09-04T11:33:22.058Z,99.99
2016-09-04T11:34:22.005Z,99.99
2016-09-04T11:35:21.974Z,99.99
2016-09-04T11:36:21.994Z,99.99
2016-09-04T11:37:22.019Z,99.99
2016-09-04T11:38:22.032Z,99.99
2016-09-04T11:39:21.990Z,99.99
2016-09-04T11:40:22.013Z,99.99
2016-09-04T11:41:22.324Z,99.99
2016-09-04T11:42:22.011Z,99.99
2016-09-04T11:43:22.007Z,99.99
2016-09-04T11:44:21.991Z,99.99
2016-09-04T11:45:21.999Z,99.99
2016-09-04T11:46:22.005Z,99.99
2016-09-04T11:47:21.993Z,99.99
2016-09-04T11:48:22.005Z,99.99
2016-09-04T11:49:22.016Z,99.99
2016-09-04T11:50:22.051Z,99.99
2016-09-04T11:51:22.014Z,99.99
2016-09-04T11:52:22.008Z,99.99
2016-09-04T11:53:22.077Z,99.99
2016-09-04T11:54:22.035Z,99.99
2016-09-04T11:55:22.067Z,99.99
2016-09-04T11:56:22.098Z,99.99
2016-09-04T11:57:22.996Z,99.99
2016-09-04T11:58:22.074Z,99.99
2016-09-04T11:59:22.169Z,99.99
2016-09-04T12:00:22.195Z,99.99
2016-09-04T12:01:22.057Z,99.99
2016-09-04T12:02:59.707Z,99.99
2016-09-04T12:04:21.731Z,99.99
2016-09-04T12:05:40.282Z,99.99
2016-09-04T12:07:04.087Z,99.99
2016-09-04T12:08:26.720Z,99.99
2016-09-04T12:09:28.591Z,99.99
2016-09-04T12:10:25.543Z,99.99
2016-09-04T12:11:25.563Z,99.99
2016-09-04T12:12:25.530Z,99.99
2016-09-04T12:13:25.501Z,99.99
2016-09-04T12:14:25.559Z,99.99
2016-09-04T12:15:25.527Z,99.99
2016-09-04T12:16:25.579Z,99.99
2016-09-04T12:17:25.515Z,99.99
2016-09-04T12:18:36.774Z,99.99
2016-09-04T12:19:25.717Z,99.99
2016-09-04T12:20:40.852Z,99.99
2016-09-04T12:21:56.837Z,99.99
2016-09-04T12:22:49.433Z,99.99
2016-09-04T12:23:58.687Z,99.99
2016-09-04T12:26:37.522Z,99.99
2016-09-04T12:28:09.189Z,99.99
2016-09-04T12:29:11.157Z,99.99
2016-09-04T12:30:37.311Z,99.99
2016-09-04T12:31:41.000Z,99.99
2016-09-04T12:32:47.849Z,99.99
2016-09-04T12:34:12.062Z,99.99
2016-09-04T12:35:41.692Z,99.99
2016-09-04T12:36:48.690Z,99.99
2016-09-04T12:37:34.791Z,99.99
2016-09-04T12:38:33.706Z,99.99
2016-09-04T12:39:32.279Z,99.99
2016-09-04T12:40:35.746Z,99.99
2016-09-04T12:41:32.177Z,99.99
2016-09-04T12:42:31.777Z,99.45
2016-09-04T12:43:31.841Z,98.1
2016-09-04T12:44:32.014Z,97.62
2016-09-04T12:45:32.043Z,97.33
2016-09-04T12:46:31.785Z,99.94
2016-09-04T12:47:31.862Z,97.52
2016-09-04T12:48:31.729Z,98.39
2016-09-04T12:49:31.745Z,99.16
2016-09-04T12:50:31.774Z,97.24
2016-09-04T12:51:31.761Z,95.78
2016-09-04T12:52:31.815Z,97.04
2016-09-04T12:53:31.750Z,96.17
2016-09-04T12:54:31.746Z,97.04
2016-09-04T12:55:31.967Z,95.68
2016-09-04T12:56:31.759Z,95.78
2016-09-04T12:57:31.806Z,94.62
2016-09-04T12:58:31.766Z,93.76
2016-09-04T12:59:31.753Z,93.66
2016-09-04T13:00:31.730Z,91.25
2016-09-04T13:01:31.729Z,91.58
2016-09-04T13:02:31.715Z,91.05
2016-09-04T13:03:31.907Z,91.83
2016-09-04T13:04:31.746Z,90.67